メインページ
METAR-TAF:

METAR-TAF

空港 :

アンマン, ヨルダン

緯度: 31-59N, 経度: 035-59E, 海抜: 767m

現時点の気象観測

当レポートは36分前の07:00(UTC)に作成
北/北西の風 4kt
気温 25°C
湿度 50%
気圧 1011 hPa
視程: 5000m
高度3000ftの雲はほとんどない
煙霧

METAR: OJAM 190700Z 33004KT 5000 HZ FEW030 25/14 Q1011 NOSIG

時間: 10:36 (07:36 UTC)

予報

当レポートは3時間28分前の04:08(UTC)に作成
予報は19日の 06時(UTC)から 20日の 12時(UTC)まで有効
北西の風 12kt
視程: 5000m
高度3000ftの雲はほとんどない
煙霧
19日の 18時(UTC)から 20日の 03時(UTC)まで一時的に
視程: 7000m

TAF: OJAM 190408Z 1906/2012 32012KT 5000 HZ FEW030 TEMPO 1918/2003 7000

4,000以上の空港の気象観測と天気予報(METAR報とTAF報)

利用可能な観測所は地図上に黄色い丸と赤い丸で示す。

丸の上にカーソルを重ねると観測所名を参照できる。

次にクリックすると気象観測と天気予報を参照できる。

マップの切り替え:黒色「×」印の緑ボタンをクリックして拡大、「-」印の緑ボタンをクリックして縮小、緑色の三角印をクリックして隣りの地図に切り替え


METAR-TAF: